createdAt,value
2019-04-01T00:00:19.673Z,27.00
2019-04-01T00:02:50.701Z,27.00
2019-04-01T00:05:21.671Z,27.00
2019-04-01T00:07:52.496Z,27.00
2019-04-01T00:10:23.437Z,27.00
2019-04-01T00:12:54.578Z,27.00
2019-04-01T00:15:25.379Z,27.10
2019-04-01T00:17:56.237Z,27.10
2019-04-01T00:20:27.175Z,27.10
2019-04-01T00:22:58.402Z,27.10
2019-04-01T00:25:30.243Z,27.10
2019-04-01T00:28:01.309Z,27.20
2019-04-01T00:30:32.182Z,27.20
2019-04-01T00:33:03.289Z,27.20
2019-04-01T00:35:34.231Z,27.20
2019-04-01T00:38:06.428Z,27.20
2019-04-01T00:40:37.389Z,27.30
2019-04-01T00:43:09.676Z,27.30
2019-04-01T00:45:48.079Z,27.30
2019-04-01T00:48:19.355Z,27.30
2019-04-01T00:50:50.228Z,27.40
2019-04-01T00:53:21.250Z,27.40
2019-04-01T00:55:52.291Z,27.50
2019-04-01T00:58:24.736Z,27.60
2019-04-01T01:00:58.407Z,27.70
2019-04-01T01:03:30.982Z,27.70
2019-04-01T01:06:02.130Z,27.80
2019-04-01T01:08:33.755Z,27.90
2019-04-01T01:11:05.053Z,27.90
2019-04-01T01:13:36.318Z,27.90
2019-04-01T01:16:07.525Z,28.00
2019-04-01T01:18:38.439Z,28.00
2019-04-01T01:21:09.373Z,28.00
2019-04-01T01:23:41.590Z,28.10
2019-04-01T01:26:14.879Z,28.10
2019-04-01T01:28:59.749Z,28.10
2019-04-01T01:31:24.927Z,28.20
2019-04-01T01:34:00.043Z,28.20
2019-04-01T01:36:31.163Z,28.20
2019-04-01T01:39:02.439Z,28.30
2019-04-01T01:41:34.694Z,28.30
2019-04-01T01:44:06.214Z,28.40
2019-04-01T01:46:37.164Z,28.50
2019-04-01T01:49:08.372Z,28.50
2019-04-01T01:51:39.375Z,28.60
2019-04-01T01:54:10.409Z,28.60
2019-04-01T01:56:41.339Z,28.60
2019-04-01T02:01:58.064Z,28.80
2019-04-01T02:04:29.012Z,28.90
2019-04-01T02:07:01.442Z,29.00
2019-04-01T02:09:32.681Z,29.00
2019-04-01T02:12:13.608Z,29.10
2019-04-01T02:14:44.660Z,29.20
2019-04-01T02:17:16.976Z,29.30
2019-04-01T02:19:47.854Z,29.40
2019-04-01T02:22:19.130Z,29.40
2019-04-01T02:24:50.512Z,29.50
2019-04-01T02:27:21.603Z,29.60
2019-04-01T02:29:52.486Z,29.70
2019-04-01T02:32:23.881Z,29.70
2019-04-01T02:34:56.225Z,29.80
2019-04-01T02:37:27.362Z,29.80
2019-04-01T02:39:58.455Z,29.80
2019-04-01T02:42:29.488Z,29.80
2019-04-01T02:45:01.559Z,29.80
2019-04-01T02:47:32.883Z,29.80
2019-04-01T02:50:04.013Z,29.90
2019-04-01T02:52:35.077Z,30.00
2019-04-01T02:55:08.036Z,30.00
2019-04-01T02:57:41.551Z,30.10
2019-04-01T03:00:12.895Z,30.10
2019-04-01T03:02:44.605Z,30.10
2019-04-01T03:05:21.557Z,30.20
2019-04-01T03:07:52.563Z,30.30
2019-04-01T03:10:23.769Z,30.40
2019-04-01T03:12:54.553Z,30.40
2019-04-01T03:15:25.359Z,30.50
2019-04-01T03:17:57.878Z,30.50
2019-04-01T03:20:28.942Z,30.60
2019-04-01T03:22:59.912Z,30.60
2019-04-01T03:25:32.382Z,30.70
2019-04-01T03:28:05.721Z,30.80
2019-04-01T03:30:37.442Z,30.90
2019-04-01T03:33:08.809Z,31.00
2019-04-01T03:35:40.113Z,31.00
2019-04-01T03:38:11.107Z,31.10
2019-04-01T03:40:48.036Z,31.00
2019-04-01T03:43:27.274Z,31.10
2019-04-01T03:45:56.466Z,31.10
2019-04-01T03:48:27.728Z,31.10
2019-04-01T03:51:00.988Z,31.20
2019-04-01T03:53:35.053Z,31.20
2019-04-01T03:56:07.405Z,31.30
2019-04-01T03:58:38.310Z,31.30
2019-04-01T04:01:09.405Z,31.40
2019-04-01T04:03:40.349Z,31.50
2019-04-01T04:06:11.408Z,31.60
2019-04-01T04:08:42.357Z,31.70
2019-04-01T04:11:14.609Z,31.80
2019-04-01T04:13:47.550Z,31.90
2019-04-01T04:16:18.545Z,31.90
2019-04-01T04:18:49.341Z,31.90
2019-04-01T04:21:23.799Z,32.00
2019-04-01T04:23:56.550Z,32.00
2019-04-01T04:26:32.082Z,32.10
2019-04-01T04:29:04.895Z,32.10
2019-04-01T04:31:35.577Z,32.20
2019-04-01T04:34:07.605Z,32.20
2019-04-01T04:36:38.517Z,32.10
2019-04-01T04:39:09.748Z,32.10
2019-04-01T04:41:40.827Z,32.10
2019-04-01T04:44:11.691Z,32.30
2019-04-01T04:46:42.772Z,32.30
2019-04-01T04:49:14.234Z,32.40
2019-04-01T04:51:45.170Z,32.50
2019-04-01T04:54:20.156Z,32.60
2019-04-01T04:56:51.617Z,32.60
2019-04-01T04:59:22.462Z,32.60
2019-04-01T05:01:56.400Z,32.60
2019-04-01T05:04:27.688Z,32.60
2019-04-01T05:06:59.952Z,32.70
2019-04-01T05:09:31.106Z,32.60
2019-04-01T05:12:02.716Z,32.60
2019-04-01T05:14:34.188Z,32.60
2019-04-01T05:17:05.103Z,32.60
2019-04-01T05:19:36.317Z,32.60
2019-04-01T05:22:09.004Z,32.60
2019-04-01T05:24:40.095Z,32.60
2019-04-01T05:27:11.110Z,32.70
2019-04-01T05:29:43.445Z,32.70
2019-04-01T05:32:17.299Z,32.70
2019-04-01T05:34:50.557Z,32.80
2019-04-01T05:37:22.179Z,32.80
2019-04-01T05:39:54.478Z,32.80
2019-04-01T05:42:38.720Z,32.90
2019-04-01T05:45:13.477Z,32.90
2019-04-01T05:47:46.597Z,33.00
2019-04-01T05:50:17.954Z,33.10
2019-04-01T05:52:51.462Z,33.10
2019-04-01T05:55:22.472Z,33.10
2019-04-01T05:57:53.835Z,33.10
2019-04-01T06:00:26.609Z,33.10
2019-04-01T06:02:59.075Z,33.10
2019-04-01T06:05:31.152Z,33.10
2019-04-01T06:08:02.399Z,33.20
2019-04-01T06:10:33.318Z,33.20
2019-04-01T06:13:04.314Z,33.20
2019-04-01T06:15:35.557Z,33.20
2019-04-01T06:18:06.594Z,33.10
2019-04-01T06:20:37.648Z,33.10
2019-04-01T06:23:10.196Z,33.00
2019-04-01T06:25:41.313Z,33.00
2019-04-01T06:28:15.700Z,33.00
2019-04-01T06:30:47.020Z,33.00
2019-04-01T06:33:18.204Z,32.90
2019-04-01T06:35:49.384Z,33.00
2019-04-01T06:38:28.141Z,32.90
2019-04-01T06:40:58.295Z,32.90
2019-04-01T06:43:31.095Z,32.90
2019-04-01T06:46:03.413Z,32.80
2019-04-01T06:48:34.991Z,32.90
2019-04-01T06:51:07.614Z,32.90
2019-04-01T06:53:39.256Z,33.00
2019-04-01T06:56:10.447Z,33.10
2019-04-01T06:58:41.509Z,33.10
2019-04-01T07:01:13.986Z,33.10
2019-04-01T07:03:45.136Z,33.30
2019-04-01T07:06:17.527Z,33.30
2019-04-01T07:08:50.021Z,33.30
2019-04-01T07:11:21.435Z,33.30
2019-04-01T07:13:52.572Z,33.40
2019-04-01T07:16:29.370Z,33.40
2019-04-01T07:19:01.908Z,33.40
2019-04-01T07:21:35.457Z,33.40
2019-04-01T07:24:11.967Z,33.30
2019-04-01T07:26:46.271Z,33.30
2019-04-01T07:29:17.716Z,33.20
2019-04-01T07:31:49.773Z,33.20
2019-04-01T07:34:20.999Z,33.20
2019-04-01T07:36:52.114Z,33.30
2019-04-01T07:39:23.638Z,33.30
2019-04-01T07:41:54.826Z,33.40
2019-04-01T07:44:28.867Z,33.40
2019-04-01T07:47:00.042Z,33.40
2019-04-01T07:49:31.142Z,33.50
2019-04-01T07:52:02.270Z,33.50
2019-04-01T07:54:33.660Z,33.60
2019-04-01T07:57:05.217Z,33.60
2019-04-01T07:59:36.307Z,33.70
2019-04-01T08:02:07.228Z,33.70
2019-04-01T08:04:38.417Z,33.80
2019-04-01T08:07:13.727Z,33.90
2019-04-01T08:09:45.133Z,33.90
2019-04-01T08:12:16.269Z,34.00
2019-04-01T08:14:47.219Z,34.10
2019-04-01T08:17:18.379Z,34.20
2019-04-01T08:19:49.382Z,34.20
2019-04-01T08:22:20.493Z,34.20
2019-04-01T08:24:52.089Z,34.30
2019-04-01T08:27:23.130Z,34.20
2019-04-01T08:29:54.216Z,34.20
2019-04-01T08:32:25.619Z,34.20
2019-04-01T08:34:56.606Z,34.20
2019-04-01T08:37:27.724Z,34.10
2019-04-01T08:39:58.721Z,34.10
2019-04-01T08:42:29.946Z,34.10
2019-04-01T08:45:01.556Z,34.00
2019-04-01T08:47:36.431Z,33.90
2019-04-01T08:50:09.222Z,33.90
2019-04-01T08:52:40.526Z,33.90
2019-04-01T08:55:11.606Z,33.90
2019-04-01T08:57:42.894Z,33.90
2019-04-01T09:00:14.388Z,34.00
2019-04-01T09:02:45.485Z,34.00
2019-04-01T09:05:16.945Z,34.00
2019-04-01T09:07:47.877Z,33.90
2019-04-01T09:10:19.417Z,33.90
2019-04-01T09:12:50.190Z,33.90
2019-04-01T09:15:21.175Z,33.90
2019-04-01T09:17:54.892Z,33.90
2019-04-01T09:20:25.291Z,33.90
2019-04-01T09:22:59.084Z,33.90
2019-04-01T09:25:28.875Z,33.90
2019-04-01T09:28:03.151Z,34.00
2019-04-01T09:30:34.576Z,34.00
2019-04-01T09:33:15.064Z,34.00
2019-04-01T09:35:41.070Z,34.00
2019-04-01T09:38:14.975Z,33.90
2019-04-01T09:40:47.498Z,33.90
2019-04-01T09:43:20.035Z,33.90
2019-04-01T09:45:51.777Z,34.00
2019-04-01T09:48:23.805Z,34.00
2019-04-01T09:50:57.888Z,33.90
2019-04-01T09:53:29.116Z,33.90
2019-04-01T09:56:01.300Z,33.90
2019-04-01T09:58:32.394Z,33.90
2019-04-01T10:01:04.870Z,33.90
2019-04-01T10:03:35.941Z,33.80
2019-04-01T10:06:10.289Z,33.80
2019-04-01T10:08:42.560Z,33.80
2019-04-01T10:11:12.752Z,33.80
2019-04-01T10:13:44.022Z,33.80
2019-04-01T10:16:17.465Z,33.80
2019-04-01T10:18:48.101Z,33.80
2019-04-01T10:21:19.076Z,33.70
2019-04-01T10:23:49.943Z,33.70
2019-04-01T10:26:21.392Z,33.70
2019-04-01T10:28:52.373Z,33.70
2019-04-01T10:31:24.310Z,33.60
2019-04-01T10:33:55.253Z,33.50
2019-04-01T10:36:43.129Z,33.50
2019-04-01T10:39:11.742Z,33.50
2019-04-01T10:41:42.773Z,33.40
2019-04-01T10:44:13.754Z,33.40
2019-04-01T10:46:47.336Z,33.40
2019-04-01T10:49:18.300Z,33.40
2019-04-01T10:51:50.420Z,33.30
2019-04-01T10:54:21.309Z,33.30
2019-04-01T10:56:52.414Z,33.20
2019-04-01T10:59:24.690Z,33.20
2019-04-01T11:01:55.507Z,33.20
2019-04-01T11:04:26.812Z,33.10
2019-04-01T11:06:58.061Z,33.10
2019-04-01T11:09:38.232Z,33.00
2019-04-01T11:12:02.121Z,33.00
2019-04-01T11:14:33.122Z,32.90
2019-04-01T11:17:04.690Z,32.90
2019-04-01T11:19:35.786Z,32.80
2019-04-01T11:22:06.934Z,32.80
2019-04-01T11:24:40.945Z,32.80
2019-04-01T11:27:11.787Z,32.70
2019-04-01T11:29:42.668Z,32.70
2019-04-01T11:32:16.683Z,32.60
2019-04-01T11:34:47.836Z,32.60
2019-04-01T11:37:18.900Z,32.50
2019-04-01T11:39:49.847Z,32.50
2019-04-01T11:42:20.964Z,32.50
2019-04-01T11:44:52.626Z,32.40
2019-04-01T11:47:25.311Z,32.40
2019-04-01T11:49:56.977Z,32.40
2019-04-01T11:52:28.040Z,32.40
2019-04-01T11:54:59.121Z,32.30
2019-04-01T11:57:30.038Z,32.30
2019-04-01T12:00:01.101Z,32.30
2019-04-01T12:02:32.003Z,32.20
2019-04-01T12:05:03.623Z,32.20
2019-04-01T12:07:34.423Z,32.20
2019-04-01T12:10:07.444Z,32.20
2019-04-01T12:12:38.400Z,32.10
2019-04-01T12:15:12.100Z,32.10
2019-04-01T12:17:44.998Z,32.00
2019-04-01T12:20:17.066Z,32.00
2019-04-01T12:22:48.017Z,32.00
2019-04-01T12:25:19.966Z,31.90
2019-04-01T12:27:51.260Z,31.90
2019-04-01T12:30:22.206Z,31.90
2019-04-01T12:32:53.336Z,31.90
2019-04-01T12:35:27.321Z,31.80
2019-04-01T12:37:58.438Z,31.80
2019-04-01T12:40:29.430Z,31.80
2019-04-01T12:43:03.386Z,31.80
2019-04-01T12:45:34.501Z,31.80
2019-04-01T12:48:06.069Z,31.70
2019-04-01T12:50:39.181Z,31.60
2019-04-01T12:53:11.681Z,31.60
2019-04-01T12:55:45.017Z,31.50
2019-04-01T12:58:17.615Z,31.50
2019-04-01T13:00:47.886Z,31.50
2019-04-01T13:03:18.962Z,31.50
2019-04-01T13:05:50.039Z,31.50
2019-04-01T13:08:21.016Z,31.40
2019-04-01T13:10:51.953Z,31.50
2019-04-01T13:13:23.159Z,31.40
2019-04-01T13:15:54.115Z,31.50
2019-04-01T13:18:25.183Z,31.50
2019-04-01T13:20:56.135Z,31.50
2019-04-01T13:23:27.244Z,31.40
2019-04-01T13:25:58.431Z,31.40
2019-04-01T13:28:30.529Z,31.40
2019-04-01T13:31:01.580Z,31.40
2019-04-01T13:33:32.752Z,31.40
2019-04-01T13:36:03.884Z,31.40
2019-04-01T13:38:34.928Z,31.30
2019-04-01T13:41:06.181Z,31.30
2019-04-01T13:43:37.221Z,31.20
2019-04-01T13:46:08.315Z,31.20
2019-04-01T13:48:39.308Z,31.10
2019-04-01T13:51:10.192Z,31.10
2019-04-01T13:53:41.074Z,31.00
2019-04-01T13:56:12.683Z,31.00
2019-04-01T13:58:43.730Z,31.00
2019-04-01T14:01:17.619Z,31.00
2019-04-01T14:03:48.977Z,30.90
2019-04-01T14:06:19.819Z,30.90
2019-04-01T14:08:51.302Z,31.00
2019-04-01T14:11:23.532Z,30.90
2019-04-01T14:13:54.335Z,31.00
2019-04-01T14:16:25.283Z,31.00
2019-04-01T14:18:56.281Z,31.00
2019-04-01T14:21:28.145Z,31.00
2019-04-01T14:23:59.141Z,31.00
2019-04-01T14:26:33.016Z,31.00
2019-04-01T14:29:04.188Z,30.90
2019-04-01T14:31:35.547Z,30.90
2019-04-01T14:34:13.048Z,30.80
2019-04-01T14:36:39.455Z,30.80
2019-04-01T14:39:10.582Z,30.80
2019-04-01T14:41:41.571Z,30.80
2019-04-01T14:44:12.505Z,30.80
2019-04-01T14:46:43.465Z,30.80
2019-04-01T14:49:14.556Z,30.70
2019-04-01T14:51:45.517Z,30.70
2019-04-01T14:54:20.756Z,30.70
2019-04-01T14:56:51.150Z,30.70
2019-04-01T14:59:21.884Z,30.70
2019-04-01T15:01:52.902Z,30.70
2019-04-01T15:04:23.895Z,30.70
2019-04-01T15:06:54.969Z,30.70
2019-04-01T15:09:26.884Z,30.70
2019-04-01T15:11:58.438Z,30.70
2019-04-01T15:14:29.455Z,30.70
2019-04-01T15:17:00.365Z,30.70
2019-04-01T15:19:31.988Z,30.70
2019-04-01T15:22:03.239Z,30.70
2019-04-01T15:24:34.283Z,30.70
2019-04-01T15:27:05.351Z,30.70
2019-04-01T15:29:36.379Z,30.70
2019-04-01T15:32:07.562Z,30.70
2019-04-01T15:34:40.184Z,30.70
2019-04-01T15:37:14.085Z,30.70
2019-04-01T15:39:47.221Z,30.60
2019-04-01T15:42:17.781Z,30.60
2019-04-01T15:44:49.807Z,30.60
2019-04-01T15:47:20.568Z,30.60
2019-04-01T15:49:51.606Z,30.60
2019-04-01T15:52:23.159Z,30.50
2019-04-01T15:54:57.676Z,30.60
2019-04-01T15:57:27.177Z,30.60
2019-04-01T15:59:58.851Z,30.50
2019-04-01T16:02:30.105Z,30.50
2019-04-01T16:05:01.232Z,30.50
2019-04-01T16:07:32.335Z,30.50
2019-04-01T16:10:03.256Z,30.50
2019-04-01T16:12:34.286Z,30.50
2019-04-01T16:15:10.936Z,30.50
2019-04-01T16:17:41.839Z,30.50
2019-04-01T16:20:13.965Z,30.50
2019-04-01T16:22:44.971Z,30.50
2019-04-01T16:25:15.945Z,30.40
2019-04-01T16:27:47.003Z,30.40
2019-04-01T16:30:17.877Z,30.40
2019-04-01T16:32:48.967Z,30.40
2019-04-01T16:35:20.130Z,30.40
2019-04-01T16:37:53.768Z,30.40
2019-04-01T16:40:24.885Z,30.40
2019-04-01T16:42:55.913Z,30.40
2019-04-01T16:45:28.041Z,30.40
2019-04-01T16:47:59.879Z,30.30
2019-04-01T16:50:31.119Z,30.30
2019-04-01T16:53:02.276Z,30.20
2019-04-01T16:55:33.218Z,30.20
2019-04-01T16:58:04.354Z,30.20
2019-04-01T17:00:36.092Z,30.20
2019-04-01T17:03:07.159Z,30.20
2019-04-01T17:05:38.324Z,30.20
2019-04-01T17:08:10.336Z,30.20
2019-04-01T17:10:41.644Z,30.20
2019-04-01T17:13:12.516Z,30.20
2019-04-01T17:15:44.498Z,30.10
2019-04-01T17:18:15.307Z,30.10
2019-04-01T17:20:46.392Z,30.10
2019-04-01T17:23:17.485Z,30.10
2019-04-01T17:25:48.547Z,30.10
2019-04-01T17:28:19.558Z,30.10
2019-04-01T17:30:50.682Z,30.10
2019-04-01T17:33:21.571Z,30.00
2019-04-01T17:35:52.468Z,30.00
2019-04-01T17:38:23.333Z,30.00
2019-04-01T17:40:54.216Z,30.00
2019-04-01T17:43:24.939Z,29.90
2019-04-01T17:45:55.983Z,29.90
2019-04-01T17:48:27.034Z,29.80
2019-04-01T17:50:58.396Z,29.80
2019-04-01T17:53:29.669Z,29.70
2019-04-01T17:56:00.681Z,29.60
2019-04-01T17:58:31.562Z,29.50
2019-04-01T18:01:02.632Z,29.40
2019-04-01T18:03:34.218Z,29.20
2019-04-01T18:06:05.841Z,29.10
2019-04-01T18:08:36.713Z,29.00
2019-04-01T18:11:07.627Z,28.90
2019-04-01T18:13:38.818Z,28.80
2019-04-01T18:16:09.656Z,28.70
2019-04-01T18:18:42.199Z,28.60
2019-04-01T18:21:13.068Z,28.50
2019-04-01T18:23:44.155Z,28.50
2019-04-01T18:26:15.014Z,28.50
2019-04-01T18:28:46.128Z,28.50
2019-04-01T18:31:16.912Z,28.40
2019-04-01T18:33:55.964Z,28.40
2019-04-01T18:36:20.356Z,28.40
2019-04-01T18:38:51.331Z,28.40
2019-04-01T18:41:22.415Z,28.30
2019-04-01T18:43:53.342Z,28.20
2019-04-01T18:46:24.193Z,28.20
2019-04-01T18:48:55.436Z,28.20
2019-04-01T18:51:26.613Z,28.20
2019-04-01T18:53:57.678Z,28.20
2019-04-01T18:56:29.163Z,28.10
2019-04-01T18:59:00.634Z,28.00
2019-04-01T19:01:31.688Z,28.00
2019-04-01T19:04:02.790Z,27.90
2019-04-01T19:06:33.860Z,27.90
2019-04-01T19:12:03.225Z,27.80
2019-04-01T19:14:25.920Z,27.80
2019-04-01T19:16:57.176Z,27.80
2019-04-01T19:19:28.177Z,27.80
2019-04-01T19:21:59.214Z,27.80
2019-04-01T19:24:30.261Z,27.80
2019-04-01T19:27:01.265Z,27.70
2019-04-01T19:29:32.279Z,27.80
2019-04-01T19:32:02.985Z,27.80
2019-04-01T19:34:34.150Z,27.80
2019-04-01T19:37:05.013Z,27.70
2019-04-01T19:39:36.278Z,27.70
2019-04-01T19:42:07.328Z,27.70
2019-04-01T19:44:38.352Z,27.70
2019-04-01T19:47:09.258Z,27.70
2019-04-01T19:49:40.401Z,27.70
2019-04-01T19:52:11.148Z,27.80
2019-04-01T19:54:42.247Z,27.80
2019-04-01T19:57:13.207Z,27.80
2019-04-01T19:59:44.150Z,27.80
2019-04-01T20:02:15.312Z,27.80
2019-04-01T20:04:47.435Z,27.90
2019-04-01T20:07:18.452Z,27.90
2019-04-01T20:09:49.424Z,27.80
2019-04-01T20:12:20.348Z,27.90
2019-04-01T20:14:51.305Z,27.80
2019-04-01T20:17:22.280Z,27.90
2019-04-01T20:19:53.406Z,27.90
2019-04-01T20:22:25.175Z,27.90
2019-04-01T20:24:56.936Z,27.90
2019-04-01T20:27:27.936Z,27.90
2019-04-01T20:29:59.090Z,27.90
2019-04-01T20:32:30.094Z,27.90
2019-04-01T20:35:00.947Z,27.90
2019-04-01T20:37:33.058Z,27.90
2019-04-01T20:40:04.076Z,27.80
2019-04-01T20:42:35.045Z,27.80
2019-04-01T20:45:10.673Z,27.90
2019-04-01T20:47:40.262Z,27.80
2019-04-01T20:50:14.740Z,27.90
2019-04-01T20:52:45.641Z,27.90
2019-04-01T20:55:17.340Z,27.90
2019-04-01T20:57:48.231Z,27.90
2019-04-01T21:00:20.407Z,27.90
2019-04-01T21:02:51.464Z,27.90
2019-04-01T21:05:23.143Z,27.90
2019-04-01T21:07:54.695Z,27.90
2019-04-01T21:10:25.761Z,27.90
2019-04-01T21:12:56.910Z,27.90
2019-04-01T21:15:27.901Z,27.90
2019-04-01T21:17:58.759Z,27.90
2019-04-01T21:20:29.556Z,27.90
2019-04-01T21:23:00.641Z,27.90
2019-04-01T21:25:31.511Z,27.80
2019-04-01T21:28:02.625Z,27.80
2019-04-01T21:30:33.916Z,27.80
2019-04-01T21:33:05.125Z,27.80
2019-04-01T21:35:37.228Z,27.80
2019-04-01T21:38:09.029Z,27.80
2019-04-01T21:40:40.294Z,27.80
2019-04-01T21:43:11.371Z,27.80
2019-04-01T21:45:42.488Z,27.80
2019-04-01T21:48:13.445Z,27.80
2019-04-01T21:50:44.679Z,27.70
2019-04-01T21:53:16.637Z,27.70
2019-04-01T21:55:47.658Z,27.70
2019-04-01T21:58:19.155Z,27.70
2019-04-01T22:00:52.443Z,27.70
2019-04-01T22:03:23.505Z,27.70
2019-04-01T22:05:54.269Z,27.70
2019-04-01T22:08:25.282Z,27.70
2019-04-01T22:10:56.089Z,27.60
2019-04-01T22:13:28.736Z,27.60
2019-04-01T22:15:59.644Z,27.70
2019-04-01T22:18:32.807Z,27.60
2019-04-01T22:21:03.067Z,27.60
2019-04-01T22:23:34.193Z,27.60
2019-04-01T22:26:05.972Z,27.60
2019-04-01T22:28:37.111Z,27.60
2019-04-01T22:31:08.456Z,27.60
2019-04-01T22:33:40.236Z,27.50
2019-04-01T22:36:11.868Z,27.50
2019-04-01T22:38:42.853Z,27.50
2019-04-01T22:41:13.686Z,27.50
2019-04-01T22:43:45.022Z,27.50
2019-04-01T22:46:16.043Z,27.50
2019-04-01T22:48:46.928Z,27.50
2019-04-01T22:51:18.031Z,27.40
2019-04-01T22:53:48.860Z,27.40
2019-04-01T22:56:19.745Z,27.40
2019-04-01T22:58:51.256Z,27.40
2019-04-01T23:01:22.575Z,27.40
2019-04-01T23:03:53.731Z,27.40
2019-04-01T23:06:26.711Z,27.40
2019-04-01T23:08:57.080Z,27.40
2019-04-01T23:11:28.149Z,27.40
2019-04-01T23:13:58.963Z,27.40
2019-04-01T23:16:29.904Z,27.40
2019-04-01T23:19:01.880Z,27.30
2019-04-01T23:21:32.833Z,27.30
2019-04-01T23:24:03.797Z,27.30
2019-04-01T23:26:34.967Z,27.30
2019-04-01T23:29:06.150Z,27.30
2019-04-01T23:31:38.390Z,27.30
2019-04-01T23:34:09.700Z,27.30
2019-04-01T23:36:41.114Z,27.30
2019-04-01T23:39:12.449Z,27.30
2019-04-01T23:41:43.226Z,27.30
2019-04-01T23:44:14.141Z,27.30
2019-04-01T23:46:45.207Z,27.30
2019-04-01T23:49:16.331Z,27.20
2019-04-01T23:51:47.590Z,27.10
2019-04-01T23:54:18.532Z,27.10
2019-04-01T23:56:49.860Z,27.10
2019-04-01T23:59:21.060Z,27.00
